createdAt,value
2019-01-29T00:04:58.287Z,5.17
2019-01-29T00:10:02.248Z,5.16
2019-01-29T00:15:06.179Z,5.11
2019-01-29T00:20:10.497Z,5.05
2019-01-29T00:25:14.580Z,5.23
2019-01-29T00:30:18.409Z,5.08
2019-01-29T00:35:22.128Z,5.05
2019-01-29T00:40:26.083Z,4.88
2019-01-29T00:45:32.953Z,4.90
2019-01-29T00:50:36.637Z,4.90
2019-01-29T00:55:40.580Z,4.99
2019-01-29T01:00:44.392Z,4.90
2019-01-29T01:05:48.041Z,4.85
2019-01-29T01:10:51.897Z,4.91
2019-01-29T01:15:56.598Z,4.83
2019-01-29T01:21:01.102Z,4.72
2019-01-29T01:26:05.089Z,4.80
2019-01-29T01:31:09.102Z,4.78
2019-01-29T01:36:13.018Z,4.75
2019-01-29T01:41:16.964Z,4.73
2019-01-29T01:46:20.965Z,4.84
2019-01-29T01:51:24.967Z,4.75
2019-01-29T01:56:29.027Z,4.78
2019-01-29T02:01:33.404Z,4.84
2019-01-29T02:06:40.240Z,4.97
2019-01-29T02:11:43.897Z,5.04
2019-01-29T02:16:47.550Z,4.96
2019-01-29T02:21:51.807Z,4.81
2019-01-29T02:26:57.281Z,4.66
2019-01-29T02:32:01.057Z,4.83
2019-01-29T02:37:05.547Z,4.79
2019-01-29T02:42:09.632Z,4.92
2019-01-29T02:47:13.299Z,4.93
2019-01-29T02:52:16.970Z,4.94
2019-01-29T02:57:20.702Z,5.12
2019-01-29T03:02:24.623Z,5.06
2019-01-29T03:07:28.373Z,5.28
2019-01-29T03:12:32.462Z,5.25
2019-01-29T03:17:36.129Z,5.18
2019-01-29T03:22:39.985Z,5.31
2019-01-29T03:27:46.856Z,5.41
2019-01-29T03:32:50.583Z,5.32
2019-01-29T03:37:54.534Z,5.20
2019-01-29T03:42:58.633Z,5.21
2019-01-29T03:48:02.307Z,5.20
2019-01-29T03:53:05.968Z,5.08
2019-01-29T03:58:10.273Z,5.05
2019-01-29T04:03:16.083Z,4.99
2019-01-29T04:08:22.297Z,5.00
2019-01-29T04:13:26.210Z,5.04
2019-01-29T04:18:29.986Z,5.09
2019-01-29T04:23:34.403Z,5.12
2019-01-29T04:28:38.885Z,5.17
2019-01-29T04:33:43.068Z,5.18
2019-01-29T04:38:47.236Z,5.15
2019-01-29T04:43:51.170Z,5.20
2019-01-29T04:48:54.890Z,5.13
2019-01-29T04:53:58.968Z,5.03
2019-01-29T04:59:05.679Z,5.02
2019-01-29T05:04:09.547Z,5.06
2019-01-29T05:09:13.201Z,5.11
2019-01-29T05:14:18.142Z,5.12
2019-01-29T05:19:24.976Z,5.23
2019-01-29T05:24:29.683Z,5.44
2019-01-29T05:29:41.165Z,5.60
2019-01-29T05:34:44.921Z,5.58
2019-01-29T05:39:48.731Z,5.62
2019-01-29T05:44:52.985Z,5.69
2019-01-29T05:49:56.730Z,5.80
2019-01-29T05:55:00.612Z,5.99
2019-01-29T06:00:07.251Z,6.02
2019-01-29T06:05:11.530Z,6.06
2019-01-29T06:10:15.282Z,5.96
2019-01-29T06:15:19.158Z,5.82
2019-01-29T06:20:24.066Z,5.93
2019-01-29T06:25:28.637Z,6.32
2019-01-29T06:30:32.304Z,6.63
2019-01-29T06:35:36.255Z,6.80
2019-01-29T06:40:40.681Z,6.86
2019-01-29T06:45:44.370Z,6.97
2019-01-29T06:50:48.280Z,7.09
2019-01-29T06:55:51.939Z,6.98
2019-01-29T07:00:56.049Z,7.19
2019-01-29T07:05:59.702Z,7.35
2019-01-29T07:11:04.803Z,7.70
2019-01-29T07:16:28.739Z,8.02
2019-01-29T07:21:32.537Z,8.18
2019-01-29T07:26:36.556Z,8.43
2019-01-29T07:31:40.365Z,8.39
2019-01-29T07:36:44.865Z,8.47
2019-01-29T07:41:48.993Z,8.45
2019-01-29T07:46:53.161Z,8.48
2019-01-29T07:51:57.937Z,8.64
2019-01-29T07:57:01.706Z,8.59
2019-01-29T08:02:05.589Z,8.75
2019-01-29T08:07:09.409Z,8.77
2019-01-29T08:12:13.796Z,8.86
2019-01-29T08:17:17.905Z,8.65
2019-01-29T08:22:21.613Z,8.57
2019-01-29T08:27:25.985Z,8.53
2019-01-29T08:32:30.013Z,8.57
2019-01-29T08:37:40.814Z,8.59
2019-01-29T08:42:44.786Z,8.69
2019-01-29T08:47:48.564Z,8.81
2019-01-29T08:52:52.380Z,8.96
2019-01-29T08:57:56.152Z,8.95
2019-01-29T09:02:59.941Z,9.09
2019-01-29T09:08:04.178Z,9.17
2019-01-29T09:13:07.898Z,9.33
2019-01-29T09:18:11.673Z,9.21
2019-01-29T09:23:17.163Z,9.37
2019-01-29T09:28:21.285Z,9.54
2019-01-29T09:33:25.280Z,9.61
2019-01-29T09:38:29.265Z,9.64
2019-01-29T09:43:33.408Z,9.53
2019-01-29T09:48:37.064Z,9.51
2019-01-29T09:53:40.951Z,9.45
2019-01-29T09:58:44.821Z,9.52
2019-01-29T10:03:48.499Z,9.62
2019-01-29T10:08:52.906Z,9.59
2019-01-29T10:13:57.849Z,9.68
2019-01-29T10:19:01.679Z,9.67
2019-01-29T10:24:05.647Z,9.83
2019-01-29T10:29:11.776Z,9.80
2019-01-29T10:34:18.101Z,10.02
2019-01-29T10:39:21.883Z,9.94
2019-01-29T10:44:26.528Z,9.96
2019-01-29T10:49:30.375Z,10.05
2019-01-29T10:54:34.218Z,10.07
2019-01-29T10:59:37.893Z,10.12
2019-01-29T11:04:42.308Z,10.06
2019-01-29T11:09:46.219Z,10.10
2019-01-29T11:14:49.905Z,10.11
2019-01-29T11:19:54.476Z,9.98
2019-01-29T11:24:58.330Z,9.64
2019-01-29T11:30:03.262Z,9.48
2019-01-29T11:35:10.083Z,9.50
2019-01-29T11:40:17.951Z,9.56
2019-01-29T11:45:33.725Z,9.60
2019-01-29T11:50:38.174Z,9.67
2019-01-29T11:55:42.949Z,9.72
2019-01-29T12:01:12.226Z,9.73
2019-01-29T12:06:17.447Z,9.74
2019-01-29T12:11:21.495Z,9.74
2019-01-29T12:16:25.385Z,9.78
2019-01-29T12:21:29.432Z,9.72
2019-01-29T12:26:33.442Z,9.70
2019-01-29T12:31:37.940Z,9.67
2019-01-29T12:36:42.203Z,9.33
2019-01-29T12:41:46.517Z,9.32
2019-01-29T12:46:50.848Z,9.42
2019-01-29T12:52:13.398Z,9.47
2019-01-29T12:57:17.655Z,9.64
2019-01-29T13:02:21.678Z,9.83
2019-01-29T13:07:28.416Z,9.88
2019-01-29T13:12:33.082Z,9.86
2019-01-29T13:17:37.419Z,9.93
2019-01-29T13:22:41.351Z,9.84
2019-01-29T13:27:45.164Z,9.82
2019-01-29T13:32:49.243Z,9.84
2019-01-29T13:37:53.098Z,9.76
2019-01-29T13:42:56.764Z,9.81
2019-01-29T13:48:01.064Z,9.82
2019-01-29T13:53:05.495Z,9.90
2019-01-29T13:58:09.935Z,9.81
2019-01-29T14:03:13.923Z,9.87
2019-01-29T14:08:19.193Z,9.92
2019-01-29T14:13:23.038Z,9.78
2019-01-29T14:18:29.354Z,9.93
2019-01-29T14:23:33.030Z,9.94
2019-01-29T14:28:36.700Z,9.96
2019-01-29T14:33:40.753Z,9.97
2019-01-29T14:39:09.496Z,9.98
2019-01-29T14:44:34.532Z,9.90
2019-01-29T14:49:39.788Z,9.84
2019-01-29T14:54:45.854Z,9.83
2019-01-29T14:59:49.585Z,9.84
2019-01-29T15:04:53.319Z,9.62
2019-01-29T15:09:57.041Z,9.47
2019-01-29T15:15:00.744Z,9.41
2019-01-29T15:20:06.295Z,9.19
2019-01-29T15:25:10.677Z,9.40
2019-01-29T15:30:22.987Z,9.77
2019-01-29T15:35:27.712Z,9.83
2019-01-29T15:40:33.810Z,9.86
2019-01-29T15:45:37.548Z,9.89
2019-01-29T15:50:42.580Z,9.75
2019-01-29T15:55:46.265Z,9.51
2019-01-29T16:00:50.004Z,9.18
2019-01-29T16:05:53.743Z,9.13
2019-01-29T16:10:57.550Z,9.12
2019-01-29T16:16:01.491Z,9.14
2019-01-29T16:21:05.232Z,9.10
2019-01-29T16:26:08.975Z,8.99
2019-01-29T16:31:12.827Z,8.89
2019-01-29T16:36:16.750Z,8.84
2019-01-29T16:41:20.732Z,8.80
2019-01-29T16:46:24.501Z,8.89
2019-01-29T16:51:30.190Z,8.99
2019-01-29T16:56:36.459Z,8.96
2019-01-29T17:01:40.131Z,8.89
2019-01-29T17:06:44.647Z,8.87
2019-01-29T17:11:48.484Z,8.82
2019-01-29T17:16:52.656Z,8.78
2019-01-29T17:21:56.467Z,8.77
2019-01-29T17:27:00.133Z,8.69
2019-01-29T17:32:04.045Z,8.68
2019-01-29T17:37:11.485Z,8.73
2019-01-29T17:42:15.200Z,8.73
2019-01-29T17:47:19.013Z,8.67
2019-01-29T17:52:22.802Z,8.61
2019-01-29T17:57:26.561Z,8.62
2019-01-29T18:02:33.009Z,8.68
2019-01-29T18:07:37.017Z,8.67
2019-01-29T18:12:40.644Z,8.61
2019-01-29T18:17:45.415Z,8.51
2019-01-29T18:22:49.189Z,8.59
2019-01-29T18:28:00.972Z,8.51
2019-01-29T18:32:59.004Z,8.60
2019-01-29T18:38:03.460Z,8.62
2019-01-29T18:43:07.535Z,8.69
2019-01-29T18:48:11.370Z,8.65
2019-01-29T18:53:16.506Z,8.88
2019-01-29T18:58:20.291Z,8.98
2019-01-29T19:03:24.098Z,8.91
2019-01-29T19:08:28.266Z,8.97
2019-01-29T19:13:32.208Z,9.07
2019-01-29T19:18:36.081Z,9.11
2019-01-29T19:23:39.995Z,9.17
2019-01-29T19:28:43.824Z,9.36
2019-01-29T19:33:47.672Z,9.43
2019-01-29T19:38:51.951Z,9.37
2019-01-29T19:43:55.761Z,9.46
2019-01-29T19:48:59.686Z,9.45
2019-01-29T19:54:04.119Z,9.42
2019-01-29T19:59:07.925Z,9.54
2019-01-29T20:04:11.653Z,9.60
2019-01-29T20:09:15.514Z,9.68
2019-01-29T20:14:20.860Z,9.62
2019-01-29T20:19:25.103Z,9.46
2019-01-29T20:24:32.069Z,9.52
2019-01-29T20:29:36.186Z,9.62
2019-01-29T20:34:39.947Z,9.68
2019-01-29T20:39:44.220Z,9.69
2019-01-29T20:44:47.902Z,9.64
2019-01-29T20:49:51.625Z,9.64
2019-01-29T20:54:55.460Z,9.55
2019-01-29T20:59:59.222Z,9.57
2019-01-29T21:05:03.873Z,9.58
2019-01-29T21:10:10.056Z,9.56
2019-01-29T21:15:15.405Z,9.53
2019-01-29T21:20:21.277Z,9.53
2019-01-29T21:25:25.057Z,9.49
2019-01-29T21:30:30.831Z,9.58
2019-01-29T21:35:34.753Z,9.57
2019-01-29T21:40:38.981Z,9.49
2019-01-29T21:45:42.781Z,9.42
2019-01-29T21:50:46.485Z,9.50
2019-01-29T21:55:50.931Z,9.41
2019-01-29T22:00:54.693Z,9.42
2019-01-29T22:05:58.474Z,9.47
2019-01-29T22:11:02.156Z,9.54
2019-01-29T22:16:05.886Z,9.41
2019-01-29T22:21:09.658Z,9.42
2019-01-29T22:26:14.946Z,9.40
2019-01-29T22:31:18.670Z,9.26
2019-01-29T22:36:22.727Z,9.26
2019-01-29T22:41:27.158Z,9.20
2019-01-29T22:46:31.847Z,9.25
2019-01-29T22:51:38.444Z,9.22
2019-01-29T22:56:42.520Z,9.23
2019-01-29T23:01:46.561Z,9.23
2019-01-29T23:07:01.889Z,9.12
2019-01-29T23:12:06.676Z,9.16
2019-01-29T23:17:10.610Z,9.19
2019-01-29T23:22:14.752Z,9.15
2019-01-29T23:27:18.469Z,8.95
2019-01-29T23:32:22.185Z,9.06
2019-01-29T23:37:28.500Z,9.00
2019-01-29T23:42:33.174Z,8.91
2019-01-29T23:47:38.677Z,9.05
2019-01-29T23:52:42.556Z,9.06
2019-01-29T23:57:46.390Z,9.13
